createdAt,value
2022-08-04T00:00:31.086Z,16.38
2022-08-04T00:03:14.379Z,16.88
2022-08-04T00:05:55.207Z,16.52
2022-08-04T00:08:34.859Z,16.50
2022-08-04T00:11:03.829Z,16.48
2022-08-04T00:13:38.359Z,16.20
2022-08-04T00:16:34.842Z,16.10
2022-08-04T00:19:11.382Z,16.48
2022-08-04T00:21:42.789Z,16.42
2022-08-04T00:24:13.356Z,16.15
2022-08-04T00:26:42.300Z,15.65
2022-08-04T00:29:10.532Z,16.60
2022-08-04T00:31:57.201Z,17.02
2022-08-04T00:34:27.871Z,16.40
2022-08-04T00:36:57.646Z,16.35
2022-08-04T00:39:26.824Z,16.88
2022-08-04T00:42:24.565Z,15.82
2022-08-04T00:45:04.267Z,15.73
2022-08-04T00:47:52.831Z,16.85
2022-08-04T00:50:28.638Z,16.13
2022-08-04T00:53:07.511Z,15.02
2022-08-04T00:56:06.573Z,16.40
2022-08-04T00:58:48.302Z,15.90
2022-08-04T01:01:30.449Z,16.27
2022-08-04T01:04:09.327Z,16.13
2022-08-04T01:06:50.888Z,16.33
2022-08-04T01:09:34.809Z,15.90
2022-08-04T01:12:31.510Z,15.35
2022-08-04T01:15:06.530Z,16.15
2022-08-04T01:17:59.650Z,16.02
2022-08-04T01:20:34.998Z,15.88
2022-08-04T01:23:50.872Z,15.45
2022-08-04T01:26:57.776Z,15.38
2022-08-04T01:29:47.035Z,15.90
2022-08-04T01:32:25.547Z,15.52
2022-08-04T01:34:59.942Z,16.10
2022-08-04T01:37:43.535Z,16.30
2022-08-04T01:40:15.758Z,15.45
2022-08-04T01:42:45.711Z,16.40
2022-08-04T01:45:16.739Z,15.27
2022-08-04T01:47:50.856Z,15.98
2022-08-04T01:50:19.060Z,15.88
2022-08-04T01:52:50.912Z,17.20
2022-08-04T01:55:20.124Z,15.82
2022-08-04T01:57:51.191Z,15.68
2022-08-04T02:00:23.673Z,16.70
2022-08-04T02:02:52.425Z,16.20
2022-08-04T02:05:22.223Z,14.77
2022-08-04T02:08:05.514Z,17.20
2022-08-04T02:10:54.430Z,15.90
2022-08-04T02:13:28.191Z,16.65
2022-08-04T02:16:03.891Z,16.17
2022-08-04T02:18:40.570Z,16.02
2022-08-04T02:21:09.349Z,15.60
2022-08-04T02:23:39.363Z,16.77
2022-08-04T02:26:19.297Z,17.88
2022-08-04T02:29:00.276Z,16.08
2022-08-04T02:31:34.332Z,16.95
2022-08-04T02:34:09.572Z,16.80
2022-08-04T02:36:39.851Z,16.20
2022-08-04T02:39:09.211Z,16.00
2022-08-04T02:41:38.509Z,16.98
2022-08-04T02:44:08.978Z,18.00
2022-08-04T02:46:41.463Z,18.23
2022-08-04T02:49:11.474Z,17.65
2022-08-04T02:51:43.423Z,19.48
2022-08-04T02:54:11.658Z,18.83
2022-08-04T02:56:41.945Z,17.83
2022-08-04T02:59:13.517Z,18.15
2022-08-04T03:01:58.049Z,17.23
2022-08-04T03:04:50.584Z,19.30
2022-08-04T03:07:45.471Z,18.00
2022-08-04T03:11:01.623Z,19.17
2022-08-04T03:13:42.848Z,20.30
2022-08-04T03:16:38.710Z,20.85
2022-08-04T03:19:58.182Z,21.17
2022-08-04T03:23:13.463Z,20.65
2022-08-04T03:26:11.031Z,19.60
2022-08-04T03:29:36.773Z,20.63
2022-08-04T03:32:39.415Z,20.27
2022-08-04T03:35:27.690Z,20.48
2022-08-04T03:38:13.394Z,19.42
2022-08-04T03:41:03.858Z,19.98
2022-08-04T03:44:02.891Z,21.00
2022-08-04T03:46:54.812Z,20.38
2022-08-04T03:49:50.241Z,18.52
2022-08-04T03:53:02.532Z,17.83
2022-08-04T03:55:51.669Z,19.48
2022-08-04T03:58:44.452Z,19.23
2022-08-04T04:01:29.421Z,19.05
2022-08-04T04:04:53.228Z,19.70
2022-08-04T04:07:58.236Z,18.88
2022-08-04T04:10:47.967Z,18.75
2022-08-04T04:13:31.738Z,19.83
2022-08-04T04:16:35.535Z,18.33
2022-08-04T04:19:24.036Z,17.30
2022-08-04T04:22:18.872Z,18.45
2022-08-04T04:25:15.561Z,18.35
2022-08-04T04:28:44.927Z,18.27
2022-08-04T04:31:04.761Z,18.20
2022-08-04T04:33:56.899Z,18.15
2022-08-04T04:36:36.993Z,18.17
2022-08-04T04:39:14.771Z,17.83
2022-08-04T04:42:15.079Z,17.67
2022-08-04T04:45:12.558Z,18.42
2022-08-04T04:48:08.757Z,17.15
2022-08-04T04:50:52.771Z,18.88
2022-08-04T04:53:29.366Z,17.92
2022-08-04T04:56:04.587Z,17.65
2022-08-04T04:58:36.199Z,15.80
2022-08-04T05:01:35.641Z,17.67
2022-08-04T05:04:37.065Z,17.17
2022-08-04T05:07:24.123Z,19.42
2022-08-04T05:10:08.126Z,19.92
2022-08-04T05:14:38.144Z,20.45
2022-08-04T05:15:57.423Z,18.65
2022-08-04T05:18:32.008Z,16.92
2022-08-04T05:21:09.236Z,16.50
2022-08-04T05:23:41.797Z,16.58
2022-08-04T05:26:14.518Z,15.55
2022-08-04T05:28:46.097Z,14.25
2022-08-04T05:31:24.392Z,14.70
2022-08-04T05:33:58.035Z,13.70
2022-08-04T05:36:40.837Z,13.95
2022-08-04T05:39:13.906Z,13.85
2022-08-04T05:41:45.901Z,13.93
2022-08-04T05:44:17.944Z,12.10
2022-08-04T05:46:53.670Z,12.20
2022-08-04T05:49:25.919Z,12.27
2022-08-04T05:51:56.841Z,11.38
2022-08-04T05:54:26.509Z,11.38
2022-08-04T05:56:56.425Z,11.63
2022-08-04T05:59:26.626Z,11.25
2022-08-04T06:01:59.034Z,12.05
2022-08-04T06:04:34.206Z,11.43
2022-08-04T06:07:02.669Z,10.70
2022-08-04T06:09:32.044Z,11.15
2022-08-04T06:12:04.143Z,10.70
2022-08-04T06:14:38.128Z,10.80
2022-08-04T06:17:18.427Z,9.88
2022-08-04T06:20:19.037Z,10.43
2022-08-04T06:22:51.724Z,10.43
2022-08-04T06:25:22.702Z,10.57
2022-08-04T06:27:52.208Z,9.50
2022-08-04T06:30:22.013Z,10.30
2022-08-04T06:33:03.603Z,9.98
2022-08-04T06:35:34.924Z,9.77
2022-08-04T06:38:04.400Z,9.80
2022-08-04T06:40:34.699Z,9.25
2022-08-04T06:43:04.518Z,10.10
2022-08-04T06:45:35.468Z,9.52
2022-08-04T06:48:05.306Z,9.13
2022-08-04T06:51:24.918Z,8.77
2022-08-04T06:53:25.805Z,8.70
2022-08-04T06:55:55.002Z,8.55
2022-08-04T06:58:24.555Z,8.88
2022-08-04T07:00:53.939Z,8.63
2022-08-04T07:03:23.020Z,7.97
2022-08-04T07:05:53.696Z,8.23
2022-08-04T07:08:22.926Z,7.88
2022-08-04T07:10:53.329Z,7.78
2022-08-04T07:13:23.409Z,7.88
2022-08-04T07:15:52.333Z,7.53
2022-08-04T07:18:20.597Z,7.35
2022-08-04T07:20:49.349Z,7.43
2022-08-04T07:23:24.096Z,7.43
2022-08-04T07:26:01.125Z,7.57
2022-08-04T07:28:41.379Z,6.97
2022-08-04T07:31:31.801Z,6.93
2022-08-04T07:34:16.641Z,6.90
2022-08-04T07:36:50.118Z,7.18
2022-08-04T07:39:28.489Z,7.40
2022-08-04T07:41:58.271Z,7.07
2022-08-04T07:44:27.032Z,6.22
2022-08-04T07:46:55.492Z,6.15
2022-08-04T07:49:55.081Z,5.15
2022-08-04T07:52:12.973Z,5.57
2022-08-04T07:54:43.007Z,5.13
2022-08-04T07:57:39.687Z,5.05
2022-08-04T07:59:59.539Z,5.68
2022-08-04T08:02:28.393Z,4.72
2022-08-04T08:04:57.183Z,5.25
2022-08-04T08:07:25.427Z,4.93
2022-08-04T08:09:55.053Z,4.80
2022-08-04T08:12:38.106Z,4.85
2022-08-04T08:15:15.822Z,4.97
2022-08-04T08:17:58.241Z,4.80
2022-08-04T08:20:29.555Z,5.28
2022-08-04T08:22:58.956Z,4.68
2022-08-04T08:25:28.841Z,5.03
2022-08-04T08:27:57.042Z,5.30
2022-08-04T08:30:31.686Z,5.22
2022-08-04T08:33:05.585Z,4.55
2022-08-04T08:35:47.405Z,4.50
2022-08-04T08:38:35.137Z,4.43
2022-08-04T08:41:25.048Z,5.18
2022-08-04T08:44:19.072Z,5.05
2022-08-04T08:47:21.071Z,5.05
2022-08-04T08:50:04.626Z,4.90
2022-08-04T08:53:00.627Z,5.18
2022-08-04T08:55:43.821Z,5.28
2022-08-04T08:58:49.842Z,5.40
2022-08-04T09:01:42.014Z,4.90
2022-08-04T09:04:35.406Z,5.00
2022-08-04T09:07:15.761Z,3.95
2022-08-04T09:09:52.774Z,4.10
2022-08-04T09:12:29.195Z,3.67
2022-08-04T09:15:07.459Z,3.80
2022-08-04T09:17:43.081Z,3.78
2022-08-04T09:20:18.333Z,3.35
2022-08-04T09:22:51.791Z,3.60
2022-08-04T09:25:25.282Z,4.47
2022-08-04T09:27:55.983Z,3.47
2022-08-04T09:30:33.923Z,3.83
2022-08-04T09:33:16.367Z,3.58
2022-08-04T09:35:54.348Z,3.63
2022-08-04T09:38:36.142Z,3.60
2022-08-04T09:41:33.921Z,3.45
2022-08-04T09:44:52.681Z,3.70
2022-08-04T09:47:12.585Z,3.20
2022-08-04T09:49:48.904Z,3.47
2022-08-04T09:52:28.025Z,3.08
2022-08-04T09:55:06.033Z,2.92
2022-08-04T09:57:49.108Z,2.75
2022-08-04T10:00:20.518Z,3.05
2022-08-04T10:03:17.434Z,3.20
2022-08-04T10:06:00.705Z,5.07
2022-08-04T10:08:52.987Z,3.03
2022-08-04T10:11:34.361Z,3.10
2022-08-04T10:14:39.985Z,3.08
2022-08-04T10:17:23.287Z,3.60
2022-08-04T10:20:01.644Z,4.05
2022-08-04T10:22:49.974Z,3.80
2022-08-04T10:26:02.917Z,3.53
2022-08-04T10:28:24.584Z,3.80
2022-08-04T10:30:59.113Z,3.80
2022-08-04T10:33:32.387Z,3.90
2022-08-04T10:36:05.769Z,3.30
2022-08-04T10:38:40.791Z,3.50
2022-08-04T10:41:17.493Z,3.35
2022-08-04T10:43:52.095Z,3.60
2022-08-04T10:46:24.355Z,3.75
2022-08-04T10:48:58.973Z,4.32
2022-08-04T10:51:58.672Z,3.85
2022-08-04T10:54:32.311Z,3.85
2022-08-04T10:57:05.885Z,4.18
2022-08-04T10:59:40.609Z,3.80
2022-08-04T11:02:28.245Z,3.65
2022-08-04T11:05:05.121Z,4.13
2022-08-04T11:07:38.189Z,4.55
2022-08-04T11:10:08.191Z,4.05
2022-08-04T11:12:39.244Z,3.40
2022-08-04T11:15:13.377Z,3.58
2022-08-04T11:17:45.216Z,3.95
2022-08-04T11:20:35.160Z,3.75
2022-08-04T11:23:10.186Z,3.67
2022-08-04T11:25:51.970Z,3.95
2022-08-04T11:28:32.321Z,3.65
2022-08-04T11:31:06.228Z,3.80
2022-08-04T11:33:42.456Z,3.90
2022-08-04T11:36:21.589Z,3.70
2022-08-04T11:38:59.323Z,4.63
2022-08-04T11:41:41.948Z,4.10
2022-08-04T11:44:17.746Z,3.70
2022-08-04T11:46:51.771Z,3.55
2022-08-04T11:49:30.476Z,4.05
2022-08-04T11:52:01.578Z,4.10
2022-08-04T11:54:33.080Z,4.07
2022-08-04T11:57:02.950Z,3.88
2022-08-04T11:59:35.417Z,4.03
2022-08-04T12:02:23.576Z,3.85
2022-08-04T12:04:57.922Z,3.45
2022-08-04T12:07:41.781Z,3.60
2022-08-04T12:10:41.484Z,4.32
2022-08-04T12:13:18.808Z,4.07
2022-08-04T12:15:56.175Z,4.00
2022-08-04T12:18:29.031Z,3.80
2022-08-04T12:21:02.004Z,3.92
2022-08-04T12:23:34.683Z,4.05
2022-08-04T12:26:07.440Z,3.78
2022-08-04T12:29:07.224Z,3.95
2022-08-04T12:31:29.623Z,3.95
2022-08-04T12:34:06.473Z,4.38
2022-08-04T12:36:44.354Z,4.00
2022-08-04T12:39:18.458Z,3.88
2022-08-04T12:41:58.360Z,3.78
2022-08-04T12:44:33.274Z,3.90
2022-08-04T12:47:25.661Z,4.10
2022-08-04T12:50:02.070Z,4.30
2022-08-04T12:52:59.142Z,3.70
2022-08-04T12:55:26.256Z,3.47
2022-08-04T12:57:56.645Z,4.25
2022-08-04T13:00:30.538Z,3.80
2022-08-04T13:03:10.028Z,4.20
2022-08-04T13:05:40.922Z,4.05
2022-08-04T13:08:11.380Z,4.20
2022-08-04T13:10:41.378Z,3.78
2022-08-04T13:13:18.217Z,3.97
2022-08-04T13:15:57.633Z,4.40
2022-08-04T13:18:30.322Z,3.70
2022-08-04T13:21:20.894Z,3.65
2022-08-04T13:24:10.382Z,3.92
2022-08-04T13:26:55.969Z,3.88
2022-08-04T13:29:59.201Z,3.58
2022-08-04T13:32:29.744Z,3.80
2022-08-04T13:35:01.198Z,4.20
2022-08-04T13:37:34.987Z,4.20
2022-08-04T13:40:05.653Z,3.63
2022-08-04T13:42:36.137Z,3.63
2022-08-04T13:45:08.248Z,3.92
2022-08-04T13:47:40.338Z,3.60
2022-08-04T13:50:18.096Z,3.67
2022-08-04T13:52:48.127Z,3.80
2022-08-04T13:55:25.283Z,3.58
2022-08-04T13:57:58.409Z,3.95
2022-08-04T14:00:43.643Z,3.35
2022-08-04T14:03:23.956Z,4.03
2022-08-04T14:06:14.045Z,4.13
2022-08-04T14:08:51.152Z,3.70
2022-08-04T14:12:10.892Z,3.60
2022-08-04T14:14:18.424Z,4.03
2022-08-04T14:17:04.396Z,3.70
2022-08-04T14:19:51.490Z,3.63
2022-08-04T14:22:30.503Z,3.80
2022-08-04T14:24:59.592Z,4.10
2022-08-04T14:27:30.460Z,4.40
2022-08-04T14:29:58.779Z,3.90
2022-08-04T14:32:28.606Z,3.95
2022-08-04T14:34:57.772Z,4.15
2022-08-04T14:37:26.067Z,3.90
2022-08-04T14:40:17.562Z,3.90
2022-08-04T14:42:44.548Z,3.80
2022-08-04T14:45:32.134Z,4.05
2022-08-04T14:48:03.200Z,4.80
2022-08-04T14:50:39.005Z,4.03
2022-08-04T14:53:09.664Z,3.63
2022-08-04T14:55:38.715Z,4.38
2022-08-04T14:58:35.314Z,3.70
2022-08-04T15:00:58.477Z,3.60
2022-08-04T15:03:30.762Z,3.90
2022-08-04T15:06:06.647Z,3.92
2022-08-04T15:08:38.024Z,3.95
2022-08-04T15:11:06.277Z,3.53
2022-08-04T15:13:35.418Z,3.80
2022-08-04T15:16:07.968Z,3.92
2022-08-04T15:18:41.873Z,3.95
2022-08-04T15:21:11.966Z,3.88
2022-08-04T15:23:40.361Z,3.80
2022-08-04T15:26:12.770Z,3.70
2022-08-04T15:28:46.056Z,3.67
2022-08-04T15:32:05.669Z,4.47
2022-08-04T15:34:06.266Z,4.22
2022-08-04T15:36:39.858Z,3.80
2022-08-04T15:39:17.865Z,4.00
2022-08-04T15:41:55.636Z,3.53
2022-08-04T15:45:09.607Z,3.90
2022-08-04T15:47:37.858Z,4.15
2022-08-04T15:50:09.968Z,4.00
2022-08-04T15:53:12.687Z,4.10
2022-08-04T15:55:43.203Z,4.10
2022-08-04T15:58:14.013Z,4.40
2022-08-04T16:01:15.543Z,3.58
2022-08-04T16:03:53.062Z,3.95
2022-08-04T16:06:45.835Z,4.13
2022-08-04T16:09:45.374Z,3.80
2022-08-04T16:12:59.471Z,3.28
2022-08-04T16:15:42.240Z,4.10
2022-08-04T16:18:25.696Z,3.75
2022-08-04T16:20:56.709Z,3.90
2022-08-04T16:24:02.067Z,4.10
2022-08-04T16:26:54.939Z,4.18
2022-08-04T16:29:40.397Z,4.10
2022-08-04T16:32:30.747Z,4.20
2022-08-04T16:35:04.229Z,4.00
2022-08-04T16:37:34.978Z,4.05
2022-08-04T16:40:38.869Z,4.30
2022-08-04T16:43:10.178Z,4.00
2022-08-04T16:45:45.153Z,4.07
2022-08-04T16:48:14.033Z,3.75
2022-08-04T16:50:54.329Z,3.80
2022-08-04T16:53:53.106Z,4.25
2022-08-04T16:56:15.155Z,3.75
2022-08-04T16:58:53.124Z,4.10
2022-08-04T17:01:33.590Z,4.13
2022-08-04T17:04:06.699Z,3.80
2022-08-04T17:06:40.281Z,4.18
2022-08-04T17:09:14.026Z,4.32
2022-08-04T17:11:42.991Z,4.20
2022-08-04T17:14:11.790Z,4.00
2022-08-04T17:16:43.531Z,4.10
2022-08-04T17:19:23.633Z,3.80
2022-08-04T17:22:00.647Z,4.13
2022-08-04T17:24:32.309Z,3.78
2022-08-04T17:27:00.614Z,4.10
2022-08-04T17:29:43.267Z,3.88
2022-08-04T17:32:17.331Z,3.88
2022-08-04T17:34:49.329Z,4.00
2022-08-04T17:40:12.237Z,4.50
2022-08-04T17:42:42.016Z,3.72
2022-08-04T17:48:02.955Z,4.10
2022-08-04T17:50:35.913Z,4.20
2022-08-04T17:53:12.621Z,4.03
2022-08-04T17:55:47.084Z,3.90
2022-08-04T17:58:21.465Z,3.90
2022-08-04T18:01:24.813Z,4.05
2022-08-04T18:03:52.800Z,3.88
2022-08-04T18:06:25.418Z,4.15
2022-08-04T18:08:58.105Z,3.95
2022-08-04T18:11:29.579Z,3.85
2022-08-04T18:14:10.704Z,4.00
2022-08-04T18:16:44.986Z,3.60
2022-08-04T18:19:18.978Z,4.00
2022-08-04T18:22:00.005Z,3.92
2022-08-04T18:24:35.658Z,4.20
2022-08-04T18:27:21.007Z,4.10
2022-08-04T18:30:14.848Z,4.10
2022-08-04T18:32:51.315Z,4.10
2022-08-04T18:36:31.383Z,3.70
2022-08-04T18:41:09.220Z,3.88
2022-08-04T18:43:40.742Z,3.80
2022-08-04T18:46:14.591Z,3.63
2022-08-04T18:48:45.298Z,3.67
2022-08-04T18:51:24.288Z,4.00
2022-08-04T18:53:55.333Z,3.50
2022-08-04T18:56:29.667Z,3.70
2022-08-04T18:59:00.738Z,3.80
2022-08-04T19:01:29.984Z,4.00
2022-08-04T19:04:33.212Z,3.83
2022-08-04T19:07:24.599Z,3.80
2022-08-04T19:09:58.062Z,3.60
2022-08-04T19:12:29.470Z,3.65
2022-08-04T19:15:10.264Z,4.03
2022-08-04T19:17:54.029Z,4.50
2022-08-04T19:20:29.846Z,4.18
2022-08-04T19:24:11.302Z,3.90
2022-08-04T19:26:01.681Z,4.22
2022-08-04T19:28:35.472Z,4.28
2022-08-04T19:31:06.217Z,4.30
2022-08-04T19:33:58.897Z,3.78
2022-08-04T19:36:27.858Z,4.70
2022-08-04T19:38:58.851Z,4.40
2022-08-04T19:41:27.742Z,4.47
2022-08-04T19:43:56.100Z,4.32
2022-08-04T19:46:25.651Z,4.80
2022-08-04T19:49:00.164Z,4.70
2022-08-04T19:51:29.989Z,4.75
2022-08-04T19:54:02.895Z,4.85
2022-08-04T19:56:40.242Z,4.85
2022-08-04T19:59:10.050Z,4.70
2022-08-04T20:01:44.757Z,4.43
2022-08-04T20:04:13.869Z,5.32
2022-08-04T20:06:42.551Z,5.13
2022-08-04T20:09:26.063Z,5.38
2022-08-04T20:11:55.772Z,5.13
2022-08-04T20:14:32.854Z,4.70
2022-08-04T20:17:03.325Z,5.13
2022-08-04T20:19:38.836Z,5.40
2022-08-04T20:22:50.598Z,4.75
2022-08-04T20:25:17.989Z,5.45
2022-08-04T20:27:59.512Z,5.00
2022-08-04T20:30:30.079Z,4.80
2022-08-04T20:33:00.122Z,5.20
2022-08-04T20:35:28.405Z,4.88
2022-08-04T20:38:00.402Z,5.07
2022-08-04T20:40:30.850Z,4.38
2022-08-04T20:42:59.549Z,4.47
2022-08-04T20:45:55.820Z,5.05
2022-08-04T20:48:16.605Z,5.15
2022-08-04T20:50:47.164Z,4.97
2022-08-04T20:53:16.424Z,5.10
2022-08-04T20:55:55.274Z,5.05
2022-08-04T20:58:27.711Z,4.75
2022-08-04T21:00:57.043Z,4.85
2022-08-04T21:03:49.227Z,5.05
2022-08-04T21:06:13.657Z,5.22
2022-08-04T21:08:44.113Z,5.00
2022-08-04T21:14:15.286Z,5.95
2022-08-04T21:16:53.833Z,6.28
2022-08-04T21:19:24.591Z,5.88
2022-08-04T21:21:55.516Z,5.45
2022-08-04T21:24:26.222Z,5.82
2022-08-04T21:26:57.631Z,5.50
2022-08-04T21:29:34.662Z,5.40
2022-08-04T21:32:05.714Z,6.05
2022-08-04T21:34:39.446Z,5.70
2022-08-04T21:37:10.452Z,5.78
2022-08-04T21:39:50.177Z,5.43
2022-08-04T21:42:30.626Z,5.95
2022-08-04T21:44:59.255Z,5.55
2022-08-04T21:47:46.073Z,5.57
2022-08-04T21:50:19.775Z,6.05
2022-08-04T21:52:49.306Z,5.80
2022-08-04T21:55:19.108Z,5.70
2022-08-04T21:57:49.416Z,5.40
2022-08-04T22:00:20.226Z,5.75
2022-08-04T22:02:53.454Z,6.20
2022-08-04T22:05:22.456Z,5.90
2022-08-04T22:10:38.859Z,6.15
2022-08-04T22:13:22.738Z,6.43
2022-08-04T22:18:39.417Z,7.45
2022-08-04T22:21:11.962Z,7.45
2022-08-04T22:23:45.465Z,7.13
2022-08-04T22:26:20.011Z,7.45
2022-08-04T22:28:57.939Z,7.28
2022-08-04T22:31:26.696Z,7.38
2022-08-04T22:34:14.821Z,7.25
2022-08-04T22:36:47.471Z,7.30
2022-08-04T22:39:16.383Z,6.82
2022-08-04T22:41:48.714Z,6.78
2022-08-04T22:44:33.643Z,7.10
2022-08-04T22:47:02.543Z,7.03
2022-08-04T22:49:32.596Z,7.22
2022-08-04T22:52:03.486Z,7.57
2022-08-04T22:54:38.234Z,7.22
2022-08-04T22:57:08.857Z,7.57
2022-08-04T22:59:43.074Z,7.97
2022-08-04T23:02:11.669Z,8.32
2022-08-04T23:04:43.038Z,8.05
2022-08-04T23:07:12.632Z,8.27
2022-08-04T23:09:49.997Z,8.55
2022-08-04T23:12:25.376Z,7.80
2022-08-04T23:14:56.270Z,8.05
2022-08-04T23:17:25.851Z,7.38
2022-08-04T23:19:59.190Z,7.55
2022-08-04T23:22:42.399Z,7.35
2022-08-04T23:25:15.510Z,7.45
2022-08-04T23:27:50.921Z,6.53
2022-08-04T23:30:24.950Z,6.60
2022-08-04T23:32:57.971Z,7.03
2022-08-04T23:35:26.375Z,6.97
2022-08-04T23:37:56.968Z,6.75
2022-08-04T23:40:32.908Z,6.80
2022-08-04T23:43:02.271Z,6.57
2022-08-04T23:46:04.169Z,6.90
2022-08-04T23:48:35.947Z,6.22
2022-08-04T23:51:13.852Z,6.10
2022-08-04T23:54:01.630Z,6.15
2022-08-04T23:56:32.337Z,6.43
2022-08-04T23:59:03.540Z,6.47
